Tuapse, Russia
Current Conditions -  °F | °C
As of 8:30 PM on Monday 24 Nov 2014 (Local Time) from URSS Reporting Station
Scattered Clouds Scattered Clouds  
Wind Chill: 39°   Ceiling: Unl
Heat Index: 43°   Visibility: 6mi
Dew Point: 39°   Wind: 7mph
Humidity: 87%   Direction: 60°ENE
Pressure: 30.18"   Gusts: NA
Location:  44.11°N, 39.07°E
Report Text: URSS 241730Z 06003MPS 9999 SCT026CB 06/04 Q1022 NOSIG RMKR06/08005MPS MT OBSC QFE765 02000070 06000070
Loading
Personal Weather Stations






























Interactive Weather Map New forecast layout! Learn more

10-Day Weather Forecast

Advertisements
Track Severe Weather on mobile